createdAt,value
2022-10-22T00:01:07.581Z,98744.47
2022-10-22T00:03:35.514Z,98750.09
2022-10-22T00:06:03.466Z,98752.41
2022-10-22T00:08:31.693Z,98745.41
2022-10-22T00:10:59.643Z,98761.19
2022-10-22T00:13:28.893Z,98761.44
2022-10-22T00:15:56.778Z,98763.00
2022-10-22T00:18:24.663Z,98765.31
2022-10-22T00:20:52.586Z,98759.16
2022-10-22T00:23:20.451Z,98752.84
2022-10-22T00:25:49.037Z,98749.72
2022-10-22T00:28:16.905Z,98746.63
2022-10-22T00:30:46.179Z,98747.19
2022-10-22T00:33:14.319Z,98743.53
2022-10-22T00:35:42.247Z,98756.78
2022-10-22T00:42:32.862Z,98747.09
2022-10-22T00:45:20.015Z,98751.66
2022-10-22T00:47:54.357Z,98760.50
2022-10-22T00:50:27.697Z,98756.69
2022-10-22T00:52:56.900Z,98750.81
2022-10-22T00:55:26.280Z,98747.75
2022-10-22T00:57:56.712Z,98747.41
2022-10-22T01:00:24.942Z,98748.06
2022-10-22T01:02:55.618Z,98748.84
2022-10-22T01:05:24.012Z,98741.50
2022-10-22T01:07:54.441Z,98741.25
2022-10-22T01:10:35.635Z,98755.16
2022-10-22T01:13:16.541Z,98738.69
2022-10-22T01:15:49.221Z,98729.09
2022-10-22T01:18:25.651Z,98722.84
2022-10-22T01:21:08.581Z,98722.50
2022-10-22T01:24:09.989Z,98707.81
2022-10-22T01:26:49.877Z,98704.91
2022-10-22T01:29:23.457Z,98697.19
2022-10-22T01:31:56.093Z,98695.94
2022-10-22T01:34:26.237Z,98706.63
2022-10-22T01:36:55.771Z,98715.66
2022-10-22T01:39:25.074Z,98702.28
2022-10-22T01:41:56.057Z,98708.34
2022-10-22T01:44:27.664Z,98715.50
2022-10-22T01:47:04.639Z,98709.03
2022-10-22T01:49:50.289Z,98707.06
2022-10-22T01:52:32.435Z,98702.94
2022-10-22T01:55:08.462Z,98709.47
2022-10-22T01:57:44.282Z,98713.38
2022-10-22T02:00:15.890Z,98713.00
2022-10-22T02:02:48.798Z,98706.16
2022-10-22T02:05:24.699Z,98702.91
2022-10-22T02:07:57.022Z,98701.03
2022-10-22T02:10:26.445Z,98702.50
2022-10-22T02:12:56.965Z,98720.16
2022-10-22T02:15:27.791Z,98729.84
2022-10-22T02:17:58.266Z,98747.63
2022-10-22T02:20:30.318Z,98753.56
2022-10-22T02:22:59.450Z,98754.09
2022-10-22T02:25:31.829Z,98777.56
2022-10-22T02:28:05.630Z,98773.94
2022-10-22T02:30:36.926Z,98770.66
2022-10-22T02:33:11.114Z,98768.16
2022-10-22T02:35:41.984Z,98767.69
2022-10-22T02:38:12.385Z,98783.09
2022-10-22T02:40:40.499Z,98772.78
2022-10-22T02:43:08.540Z,98773.66
2022-10-22T02:45:38.260Z,98776.63
2022-10-22T02:48:06.854Z,98776.63
2022-10-22T02:50:34.761Z,98775.22
2022-10-22T02:53:02.579Z,98772.25
2022-10-22T02:55:30.758Z,98768.97
2022-10-22T02:57:58.531Z,98779.66
2022-10-22T03:00:27.001Z,98777.13
2022-10-22T03:02:56.405Z,98779.97
2022-10-22T03:05:24.198Z,98787.84
2022-10-22T03:07:52.227Z,98780.56
2022-10-22T03:10:20.031Z,98778.47
2022-10-22T03:12:48.293Z,98778.84
2022-10-22T03:15:16.263Z,98773.34
2022-10-22T03:17:44.392Z,98785.25
2022-10-22T03:20:13.575Z,98779.94
2022-10-22T03:22:44.294Z,98775.53
2022-10-22T03:25:15.289Z,98769.81
2022-10-22T03:27:43.979Z,98770.41
2022-10-22T03:30:13.825Z,98784.84
2022-10-22T03:32:42.014Z,98785.16
2022-10-22T03:35:10.183Z,98787.84
2022-10-22T03:37:40.379Z,98798.97
2022-10-22T03:40:11.511Z,98804.81
2022-10-22T03:42:41.431Z,98818.81
2022-10-22T03:45:10.524Z,98811.44
2022-10-22T03:47:38.652Z,98817.22
2022-10-22T03:50:08.076Z,98800.66
2022-10-22T03:52:37.856Z,98807.88
2022-10-22T03:55:09.012Z,98813.34
2022-10-22T03:57:37.164Z,98829.06
2022-10-22T04:00:07.074Z,98819.44
2022-10-22T04:02:34.851Z,98825.03
2022-10-22T04:05:02.988Z,98813.81
2022-10-22T04:07:30.901Z,98822.28
2022-10-22T04:09:58.868Z,98826.72
2022-10-22T04:12:28.097Z,98830.44
2022-10-22T04:14:55.918Z,98835.91
2022-10-22T04:17:23.823Z,98838.69
2022-10-22T04:19:51.659Z,98841.28
2022-10-22T04:22:19.778Z,98847.59
2022-10-22T04:24:47.632Z,98840.81
2022-10-22T04:27:15.464Z,98832.72
2022-10-22T04:29:44.677Z,98832.94
2022-10-22T04:32:12.540Z,98849.56
2022-10-22T04:34:40.349Z,98847.53
2022-10-22T04:37:11.113Z,98849.34
2022-10-22T04:39:39.044Z,98846.97
2022-10-22T04:42:07.301Z,98844.47
2022-10-22T04:44:35.224Z,98846.75
2022-10-22T04:47:04.455Z,98842.50
2022-10-22T04:49:32.279Z,98855.69
2022-10-22T04:52:00.136Z,98862.53
2022-10-22T04:54:32.140Z,98861.09
2022-10-22T04:57:01.281Z,98860.88
2022-10-22T04:59:29.107Z,98855.28
2022-10-22T05:01:57.000Z,98857.88
2022-10-22T05:04:26.201Z,98852.84
2022-10-22T05:06:54.009Z,98865.47
2022-10-22T05:09:22.416Z,98859.59
2022-10-22T05:11:53.964Z,98863.00
2022-10-22T05:14:23.546Z,98875.44
2022-10-22T05:16:52.554Z,98882.38
2022-10-22T05:19:23.888Z,98919.47
2022-10-22T05:21:53.668Z,98926.97
2022-10-22T05:24:21.715Z,98912.19
2022-10-22T05:26:50.825Z,98928.88
2022-10-22T05:29:19.146Z,98919.25
2022-10-22T05:31:47.439Z,98910.84
2022-10-22T05:34:16.304Z,98911.91
2022-10-22T05:36:44.276Z,98916.72
2022-10-22T05:39:14.034Z,98918.31
2022-10-22T05:41:41.850Z,98923.50
2022-10-22T05:44:13.083Z,98916.66
2022-10-22T05:46:43.262Z,98918.00
2022-10-22T05:49:15.120Z,98921.56
2022-10-22T05:51:43.300Z,98923.34
2022-10-22T05:54:18.583Z,98922.78
2022-10-22T05:56:46.983Z,98920.06
2022-10-22T05:59:14.975Z,98931.22
2022-10-22T06:01:42.865Z,98925.50
2022-10-22T06:04:12.757Z,98936.28
2022-10-22T06:06:43.931Z,98954.34
2022-10-22T06:09:18.761Z,98947.81
2022-10-22T06:11:47.719Z,98950.88
2022-10-22T06:14:16.311Z,98961.72
2022-10-22T06:16:44.400Z,98964.19
2022-10-22T06:19:13.599Z,98968.66
2022-10-22T06:21:42.002Z,98970.56
2022-10-22T06:24:11.585Z,98981.13
2022-10-22T06:26:41.849Z,98982.00
2022-10-22T06:29:10.466Z,98980.66
2022-10-22T06:31:38.448Z,98989.56
2022-10-22T06:34:08.014Z,98988.19
2022-10-22T06:36:35.955Z,98993.13
2022-10-22T06:39:04.869Z,99001.75
2022-10-22T06:41:32.735Z,99004.75
2022-10-22T06:44:01.982Z,99008.59
2022-10-22T06:46:31.748Z,99008.25
2022-10-22T06:49:02.492Z,99007.72
2022-10-22T06:51:31.226Z,99022.66
2022-10-22T06:53:59.776Z,99013.31
2022-10-22T06:56:29.570Z,99021.38
2022-10-22T06:59:07.562Z,99022.38
2022-10-22T07:01:37.260Z,99019.25
2022-10-22T07:04:06.403Z,99019.91
2022-10-22T07:06:34.265Z,99033.03
2022-10-22T07:09:02.581Z,99034.84
2022-10-22T07:11:33.819Z,99043.25
2022-10-22T07:14:03.343Z,99049.81
2022-10-22T07:16:32.449Z,99045.22
2022-10-22T07:19:01.217Z,99054.03
2022-10-22T07:21:29.721Z,99055.25
2022-10-22T07:23:58.151Z,99062.06
2022-10-22T07:26:28.188Z,99060.03
2022-10-22T07:28:56.223Z,99076.16
2022-10-22T07:31:25.370Z,99078.28
2022-10-22T07:33:53.576Z,99075.75
2022-10-22T07:36:21.461Z,99080.44
2022-10-22T07:38:54.354Z,99077.56
2022-10-22T07:41:22.196Z,99083.72
2022-10-22T07:43:50.253Z,99085.41
2022-10-22T07:46:18.318Z,99087.28
2022-10-22T07:48:48.146Z,99085.94
2022-10-22T07:51:16.384Z,99093.69
2022-10-22T07:53:44.437Z,99099.50
2022-10-22T07:56:12.308Z,99095.19
2022-10-22T07:58:41.526Z,99090.31
2022-10-22T08:01:09.455Z,99096.84
2022-10-22T08:03:37.331Z,99099.59
2022-10-22T08:06:07.118Z,99104.34
2022-10-22T08:08:35.059Z,99095.06
2022-10-22T08:11:03.330Z,99107.75
2022-10-22T08:13:31.705Z,99111.94
2022-10-22T08:16:00.685Z,99110.44
2022-10-22T08:18:29.155Z,99108.94
2022-10-22T08:20:57.548Z,99104.88
2022-10-22T08:23:28.645Z,99113.84
2022-10-22T08:25:57.832Z,99102.91
2022-10-22T08:28:26.005Z,99112.06
2022-10-22T08:30:53.833Z,99121.53
2022-10-22T08:33:21.685Z,99113.31
2022-10-22T08:35:50.562Z,99117.25
2022-10-22T08:38:18.506Z,99131.81
2022-10-22T08:40:51.117Z,99127.38
2022-10-22T08:43:42.711Z,99126.09
2022-10-22T08:46:23.963Z,99124.97
2022-10-22T08:48:54.632Z,99122.78
2022-10-22T08:51:26.010Z,99128.91
2022-10-22T08:54:09.601Z,99123.91
2022-10-22T08:56:42.095Z,99135.97
2022-10-22T08:59:18.465Z,99136.59
2022-10-22T09:01:48.332Z,99142.41
2022-10-22T09:04:25.467Z,99149.25
2022-10-22T09:06:55.137Z,99139.72
2022-10-22T09:09:25.730Z,99144.50
2022-10-22T09:11:57.698Z,99154.59
2022-10-22T09:14:27.466Z,99153.13
2022-10-22T09:17:14.051Z,99153.88
2022-10-22T09:19:56.147Z,99147.94
2022-10-22T09:25:15.554Z,99150.06
2022-10-22T09:27:44.873Z,99149.91
2022-10-22T09:30:17.386Z,99144.88
2022-10-22T09:32:45.539Z,99146.16
2022-10-22T09:35:15.369Z,99138.97
2022-10-22T09:37:49.856Z,99138.78
2022-10-22T09:40:18.592Z,99152.06
2022-10-22T09:42:48.791Z,99150.50
2022-10-22T09:45:21.301Z,99151.69
2022-10-22T09:48:01.463Z,99154.66
2022-10-22T09:50:38.984Z,99150.97
2022-10-22T09:53:15.292Z,99157.03
2022-10-22T09:55:44.185Z,99165.78
2022-10-22T09:58:15.102Z,99177.22
2022-10-22T10:00:46.345Z,99171.78
2022-10-22T10:03:19.492Z,99174.50
2022-10-22T10:05:49.946Z,99183.28
2022-10-22T10:08:18.574Z,99176.06
2022-10-22T10:10:50.265Z,99185.66
2022-10-22T10:13:48.450Z,99184.31
2022-10-22T10:16:32.075Z,99184.88
2022-10-22T10:19:26.665Z,99183.53
2022-10-22T10:22:01.953Z,99188.13
2022-10-22T10:24:38.696Z,99194.69
2022-10-22T10:27:14.022Z,99201.13
2022-10-22T10:29:56.673Z,99200.44
2022-10-22T10:32:38.124Z,99204.66
2022-10-22T10:35:21.284Z,99209.78
2022-10-22T10:38:02.588Z,99209.34
2022-10-22T10:40:39.594Z,99207.22
2022-10-22T10:43:11.931Z,99213.34
2022-10-22T10:45:52.261Z,99215.97
2022-10-22T10:48:38.838Z,99201.34
2022-10-22T10:51:19.877Z,99212.06
2022-10-22T10:54:01.449Z,99204.75
2022-10-22T10:56:39.989Z,99207.66
2022-10-22T10:59:20.338Z,99212.47
2022-10-22T11:02:09.179Z,99210.09
2022-10-22T11:05:07.350Z,99198.28
2022-10-22T11:07:41.323Z,99190.53
2022-10-22T11:10:28.930Z,99199.47
2022-10-22T11:13:03.273Z,99199.63
2022-10-22T11:15:34.161Z,99202.59
2022-10-22T11:18:13.173Z,99209.56
2022-10-22T11:20:50.989Z,99209.06
2022-10-22T11:23:26.623Z,99201.16
2022-10-22T11:25:54.466Z,99202.97
2022-10-22T11:28:28.333Z,99213.13
2022-10-22T11:31:02.554Z,99205.94
2022-10-22T11:33:43.621Z,99206.63
2022-10-22T11:36:11.974Z,99200.44
2022-10-22T11:38:39.841Z,99207.75
2022-10-22T11:41:12.139Z,99206.66
2022-10-22T11:43:57.621Z,99199.88
2022-10-22T11:46:41.328Z,99196.00
2022-10-22T11:49:24.049Z,99193.41
2022-10-22T11:51:52.860Z,99192.56
2022-10-22T11:54:42.648Z,99196.59
2022-10-22T11:57:20.823Z,99202.50
2022-10-22T11:59:51.814Z,99198.72
2022-10-22T12:02:44.228Z,99201.56
2022-10-22T12:05:35.588Z,99192.75
2022-10-22T12:08:15.913Z,99205.25
2022-10-22T12:10:56.687Z,99196.16
2022-10-22T12:13:28.634Z,99189.66
2022-10-22T12:15:59.955Z,99181.75
2022-10-22T12:18:40.752Z,99180.25
2022-10-22T12:21:13.918Z,99185.84
2022-10-22T12:23:42.023Z,99183.34
2022-10-22T12:26:25.207Z,99172.38
2022-10-22T12:28:58.386Z,99169.84
2022-10-22T12:31:26.788Z,99167.59
2022-10-22T12:33:58.745Z,99171.69
2022-10-22T12:36:28.638Z,99166.47
2022-10-22T12:39:00.227Z,99171.44
2022-10-22T12:41:32.202Z,99164.56
2022-10-22T12:44:00.702Z,99163.66
2022-10-22T12:46:31.286Z,99159.97
2022-10-22T12:49:01.626Z,99165.53
2022-10-22T12:54:05.992Z,99174.22
2022-10-22T12:56:35.634Z,99160.81
2022-10-22T12:59:06.081Z,99148.75
2022-10-22T13:01:37.906Z,99150.91
2022-10-22T13:04:08.590Z,99145.19
2022-10-22T13:06:37.885Z,99148.31
2022-10-22T13:09:15.820Z,99150.25
2022-10-22T13:11:51.407Z,99153.63
2022-10-22T13:14:30.798Z,99156.66
2022-10-22T13:17:10.707Z,99153.00
2022-10-22T13:19:45.209Z,99153.75
2022-10-22T13:22:32.861Z,99151.31
2022-10-22T13:25:19.371Z,99148.13
2022-10-22T13:27:48.589Z,99153.00
2022-10-22T13:30:21.655Z,99155.44
2022-10-22T13:32:54.571Z,99148.28
2022-10-22T13:35:25.801Z,99155.69
2022-10-22T13:37:55.222Z,99149.16
2022-10-22T13:40:23.368Z,99143.88
2022-10-22T13:42:51.219Z,99144.28
2022-10-22T13:45:19.793Z,99147.94
2022-10-22T13:47:51.670Z,99153.00
2022-10-22T13:50:21.791Z,99154.28
2022-10-22T13:52:53.383Z,99148.81
2022-10-22T13:55:26.054Z,99153.31
2022-10-22T13:57:56.120Z,99154.41
2022-10-22T14:00:24.211Z,99157.56
2022-10-22T14:02:56.322Z,99139.78
2022-10-22T14:05:24.273Z,99154.19
2022-10-22T14:07:53.106Z,99143.63
2022-10-22T14:10:24.999Z,99151.78
2022-10-22T14:12:53.898Z,99157.81
2022-10-22T14:15:24.286Z,99153.03
2022-10-22T14:17:54.710Z,99152.88
2022-10-22T14:20:25.155Z,99149.56
2022-10-22T14:22:53.176Z,99149.19
2022-10-22T14:25:24.546Z,99153.63
2022-10-22T14:27:53.076Z,99150.00
2022-10-22T14:30:22.663Z,99157.34
2022-10-22T14:32:51.162Z,99154.28
2022-10-22T14:35:21.569Z,99152.56
2022-10-22T14:37:49.382Z,99151.28
2022-10-22T14:40:19.971Z,99155.78
2022-10-22T14:42:52.339Z,99156.31
2022-10-22T14:45:23.889Z,99152.47
2022-10-22T14:47:54.916Z,99158.38
2022-10-22T14:50:23.140Z,99153.69
2022-10-22T14:52:51.756Z,99141.69
2022-10-22T14:55:20.762Z,99153.13
2022-10-22T14:57:49.965Z,99153.88
2022-10-22T15:00:19.396Z,99165.09
2022-10-22T15:02:48.197Z,99173.25
2022-10-22T15:05:17.436Z,99161.75
2022-10-22T15:07:45.725Z,99173.69
2022-10-22T15:10:13.845Z,99172.63
2022-10-22T15:12:41.866Z,99180.75
2022-10-22T15:15:12.037Z,99184.72
2022-10-22T15:17:40.820Z,99181.56
2022-10-22T15:20:09.509Z,99179.50
2022-10-22T15:22:37.803Z,99179.56
2022-10-22T15:25:08.373Z,99181.59
2022-10-22T15:27:36.507Z,99193.22
2022-10-22T15:30:05.311Z,99188.81
2022-10-22T15:32:34.663Z,99187.81
2022-10-22T15:35:03.219Z,99191.31
2022-10-22T15:37:31.818Z,99191.88
2022-10-22T15:40:00.462Z,99196.06
2022-10-22T15:42:28.373Z,99186.13
2022-10-22T15:44:59.704Z,99178.44
2022-10-22T15:47:29.612Z,99194.84
2022-10-22T15:49:59.138Z,99194.72
2022-10-22T15:52:27.104Z,99192.00
2022-10-22T15:54:56.159Z,99189.72
2022-10-22T15:57:24.042Z,99198.97
2022-10-22T15:59:52.112Z,99203.00
2022-10-22T16:02:19.914Z,99213.97
2022-10-22T16:04:47.946Z,99209.97
2022-10-22T16:07:19.874Z,99217.47
2022-10-22T16:09:50.347Z,99218.59
2022-10-22T16:12:18.150Z,99227.16
2022-10-22T16:14:45.977Z,99230.16
2022-10-22T16:17:14.190Z,99228.53
2022-10-22T16:19:42.124Z,99237.88
2022-10-22T16:22:13.835Z,99231.69
2022-10-22T16:24:43.927Z,99240.50
2022-10-22T16:27:11.886Z,99245.28
2022-10-22T16:29:40.378Z,99243.63
2022-10-22T16:32:08.235Z,99245.56
2022-10-22T16:34:36.093Z,99236.16
2022-10-22T16:37:09.911Z,99246.03
2022-10-22T16:39:38.147Z,99247.16
2022-10-22T16:42:07.627Z,99242.66
2022-10-22T16:44:35.510Z,99244.72
2022-10-22T16:47:03.392Z,99239.09
2022-10-22T16:49:31.254Z,99243.13
2022-10-22T16:51:59.086Z,99242.47
2022-10-22T16:54:26.888Z,99241.88
2022-10-22T16:56:55.492Z,99242.19
2022-10-22T16:59:24.711Z,99237.34
2022-10-22T17:01:52.636Z,99237.34
2022-10-22T17:04:20.516Z,99234.69
2022-10-22T17:06:49.094Z,99239.50
2022-10-22T17:09:18.019Z,99238.91
2022-10-22T17:11:46.383Z,99237.78
2022-10-22T17:14:14.205Z,99237.88
2022-10-22T17:16:43.468Z,99250.63
2022-10-22T17:19:15.654Z,99241.97
2022-10-22T17:21:44.115Z,99245.75
2022-10-22T17:24:12.140Z,99243.03
2022-10-22T17:26:39.990Z,99252.66
2022-10-22T17:29:08.082Z,99255.88
2022-10-22T17:31:37.974Z,99251.16
2022-10-22T17:34:08.602Z,99260.28
2022-10-22T17:36:36.924Z,99251.75
2022-10-22T17:39:08.321Z,99258.25
2022-10-22T17:41:38.081Z,99265.63
2022-10-22T17:44:08.813Z,99263.09
2022-10-22T17:46:36.986Z,99263.06
2022-10-22T17:49:11.212Z,99269.59
2022-10-22T17:51:38.998Z,99271.00
2022-10-22T17:54:09.064Z,99277.84
2022-10-22T17:56:40.033Z,99277.94
2022-10-22T17:59:08.797Z,99271.66
2022-10-22T18:01:43.306Z,99274.56
2022-10-22T18:04:15.994Z,99268.34
2022-10-22T18:06:43.789Z,99284.75
2022-10-22T18:09:17.405Z,99278.91
2022-10-22T18:11:47.274Z,99278.94
2022-10-22T18:14:15.207Z,99289.28
2022-10-22T18:16:43.191Z,99294.13
2022-10-22T18:19:15.410Z,99291.28
2022-10-22T18:21:43.373Z,99287.88
2022-10-22T18:24:11.710Z,99289.66
2022-10-22T18:26:39.569Z,99292.13
2022-10-22T18:29:07.642Z,99281.06
2022-10-22T18:31:35.489Z,99297.50
2022-10-22T18:34:03.303Z,99283.53
2022-10-22T18:36:32.545Z,99286.72
2022-10-22T18:39:01.889Z,99286.59
2022-10-22T18:41:31.322Z,99286.31
2022-10-22T18:44:00.648Z,99289.53
2022-10-22T18:46:30.131Z,99293.28
2022-10-22T18:48:59.085Z,99295.69
2022-10-22T18:51:30.102Z,99296.66
2022-10-22T18:54:05.958Z,99296.97
2022-10-22T18:56:46.003Z,99298.63
2022-10-22T18:59:17.702Z,99301.75
2022-10-22T19:01:45.557Z,99298.28
2022-10-22T19:04:13.962Z,99292.47
2022-10-22T19:06:45.719Z,99292.22
2022-10-22T19:09:16.414Z,99289.75
2022-10-22T19:11:45.274Z,99287.16
2022-10-22T19:14:14.629Z,99289.06
2022-10-22T19:16:42.515Z,99285.47
2022-10-22T19:19:10.310Z,99297.25
2022-10-22T19:21:39.102Z,99290.78
2022-10-22T19:24:07.654Z,99293.06
2022-10-22T19:26:37.429Z,99295.63
2022-10-22T19:29:05.550Z,99298.53
2022-10-22T19:31:33.515Z,99303.81
2022-10-22T19:34:02.565Z,99295.13
2022-10-22T19:36:32.615Z,99295.84
2022-10-22T19:39:00.704Z,99289.53
2022-10-22T19:41:30.507Z,99288.50
2022-10-22T19:44:01.511Z,99281.84
2022-10-22T19:46:32.439Z,99281.53
2022-10-22T19:49:00.890Z,99288.06
2022-10-22T19:51:30.791Z,99285.25
2022-10-22T19:54:00.091Z,99284.91
2022-10-22T19:56:28.884Z,99283.31
2022-10-22T19:58:56.907Z,99288.75
2022-10-22T20:01:26.893Z,99283.72
2022-10-22T20:03:55.208Z,99286.97
2022-10-22T20:06:23.140Z,99283.06
2022-10-22T20:08:55.197Z,99283.88
2022-10-22T20:11:26.179Z,99279.09
2022-10-22T20:13:54.509Z,99280.31
2022-10-22T20:16:24.632Z,99281.78
2022-10-22T20:18:54.213Z,99284.66
2022-10-22T20:21:22.757Z,99282.78
2022-10-22T20:23:54.125Z,99287.06
2022-10-22T20:26:23.865Z,99286.00
2022-10-22T20:28:51.999Z,99278.19
2022-10-22T20:31:22.409Z,99285.84
2022-10-22T20:33:51.456Z,99287.41
2022-10-22T20:36:22.719Z,99289.41
2022-10-22T20:38:51.767Z,99286.34
2022-10-22T20:41:21.863Z,99296.16
2022-10-22T20:43:51.941Z,99301.31
2022-10-22T20:46:22.949Z,99298.09
2022-10-22T20:48:52.567Z,99302.41
2022-10-22T20:51:21.844Z,99299.22
2022-10-22T20:53:49.770Z,99293.81
2022-10-22T20:56:18.904Z,99302.47
2022-10-22T20:58:48.552Z,99301.47
2022-10-22T21:01:21.536Z,99301.22
2022-10-22T21:03:49.788Z,99301.47
2022-10-22T21:06:17.921Z,99299.69
2022-10-22T21:08:47.120Z,99297.28
2022-10-22T21:11:15.047Z,99292.97
2022-10-22T21:13:42.874Z,99302.47
2022-10-22T21:16:12.549Z,99305.59
2022-10-22T21:18:40.746Z,99301.66
2022-10-22T21:21:09.385Z,99306.59
2022-10-22T21:23:38.008Z,99296.69
2022-10-22T21:26:07.409Z,99306.81
2022-10-22T21:28:36.197Z,99305.81
2022-10-22T21:31:05.554Z,99311.94
2022-10-22T21:33:36.467Z,99300.47
2022-10-22T21:36:04.970Z,99303.66
2022-10-22T21:38:33.369Z,99298.44
2022-10-22T21:41:07.297Z,99296.00
2022-10-22T21:43:37.298Z,99294.13
2022-10-22T21:46:08.065Z,99305.69
2022-10-22T21:48:37.068Z,99297.72
2022-10-22T21:51:10.634Z,99299.81
2022-10-22T21:53:39.204Z,99296.53
2022-10-22T21:56:09.676Z,99291.97
2022-10-22T21:58:37.987Z,99291.63
2022-10-22T22:01:06.013Z,99290.78
2022-10-22T22:03:34.056Z,99288.63
2022-10-22T22:06:04.234Z,99281.47
2022-10-22T22:08:33.438Z,99276.72
2022-10-22T22:11:03.062Z,99267.81
2022-10-22T22:13:33.054Z,99277.94
2022-10-22T22:16:01.992Z,99273.13
2022-10-22T22:18:30.701Z,99272.66
2022-10-22T22:20:58.714Z,99261.97
2022-10-22T22:23:26.752Z,99250.97
2022-10-22T22:25:54.662Z,99241.59
2022-10-22T22:28:22.641Z,99240.16
2022-10-22T22:30:51.803Z,99235.34
2022-10-22T22:33:19.683Z,99237.53
2022-10-22T22:35:47.539Z,99237.06
2022-10-22T22:38:15.377Z,99243.75
2022-10-22T22:40:43.352Z,99235.34
2022-10-22T22:43:13.040Z,99235.97
2022-10-22T22:45:40.934Z,99234.56
2022-10-22T22:48:10.177Z,99233.22
2022-10-22T22:50:38.020Z,99230.41
2022-10-22T22:53:05.861Z,99240.63
2022-10-22T22:55:33.760Z,99249.75
2022-10-22T22:58:01.642Z,99250.09
2022-10-22T23:00:29.741Z,99263.09
2022-10-22T23:02:57.797Z,99256.31
2022-10-22T23:05:27.124Z,99264.09
2022-10-22T23:07:55.022Z,99250.16
2022-10-22T23:10:22.830Z,99250.69
2022-10-22T23:12:50.935Z,99244.69
2022-10-22T23:15:18.728Z,99260.16
2022-10-22T23:17:46.629Z,99266.09
2022-10-22T23:20:14.396Z,99271.44
2022-10-22T23:22:44.060Z,99272.28
2022-10-22T23:25:12.085Z,99273.72
2022-10-22T23:27:40.190Z,99267.06
2022-10-22T23:30:10.134Z,99263.97
2022-10-22T23:32:38.779Z,99265.63
2022-10-22T23:35:07.132Z,99262.97
2022-10-22T23:37:34.972Z,99264.78
2022-10-22T23:40:04.696Z,99252.28
2022-10-22T23:42:32.548Z,99247.06
2022-10-22T23:45:00.422Z,99251.66
2022-10-22T23:47:28.252Z,99257.38
2022-10-22T23:49:56.134Z,99255.66
2022-10-22T23:52:23.943Z,99254.09
2022-10-22T23:54:51.793Z,99248.16
2022-10-22T23:57:20.988Z,99249.19
2022-10-22T23:59:49.476Z,99244.34
